createdAt,value
2018-11-27T00:00:20.417Z,86.40
2018-11-27T00:02:48.967Z,87.50
2018-11-27T00:05:17.332Z,86.20
2018-11-27T00:07:45.726Z,86.40
2018-11-27T00:10:14.100Z,85.90
2018-11-27T00:12:42.465Z,85.90
2018-11-27T00:15:12.056Z,86.00
2018-11-27T00:17:40.457Z,85.90
2018-11-27T00:20:10.590Z,85.90
2018-11-27T00:22:39.985Z,85.70
2018-11-27T00:25:12.741Z,85.50
2018-11-27T00:27:41.694Z,85.70
2018-11-27T00:30:14.001Z,85.70
2018-11-27T00:32:42.379Z,85.50
2018-11-27T00:35:11.880Z,85.50
2018-11-27T00:37:40.299Z,85.50
2018-11-27T00:40:10.533Z,85.20
2018-11-27T00:42:39.156Z,85.10
2018-11-27T00:45:09.221Z,85.30
2018-11-27T00:47:37.595Z,85.00
2018-11-27T00:50:11.069Z,84.80
2018-11-27T00:52:40.013Z,85.10
2018-11-27T00:55:11.987Z,84.80
2018-11-27T00:57:41.359Z,84.90
2018-11-27T01:00:14.329Z,84.80
2018-11-27T01:02:43.213Z,85.70
2018-11-27T01:05:12.691Z,84.60
2018-11-27T01:07:41.118Z,84.30
2018-11-27T01:10:17.863Z,84.50
2018-11-27T01:12:46.240Z,85.50
2018-11-27T01:15:15.751Z,84.70
2018-11-27T01:17:53.303Z,84.60
2018-11-27T01:20:22.395Z,84.50
2018-11-27T01:22:50.807Z,84.40
2018-11-27T01:25:19.194Z,84.50
2018-11-27T01:27:47.590Z,84.30
2018-11-27T01:30:17.391Z,84.60
2018-11-27T01:32:46.192Z,84.50
2018-11-27T01:35:16.579Z,84.50
2018-11-27T01:37:45.485Z,84.20
2018-11-27T01:40:15.367Z,84.30
2018-11-27T01:42:44.058Z,84.30
2018-11-27T01:45:13.808Z,84.10
2018-11-27T01:47:42.561Z,83.80
2018-11-27T01:50:13.218Z,84.00
2018-11-27T01:52:41.712Z,83.80
2018-11-27T01:55:14.494Z,83.30
2018-11-27T01:57:42.854Z,83.20
2018-11-27T02:00:13.752Z,83.60
2018-11-27T02:02:42.276Z,83.10
2018-11-27T02:05:10.658Z,83.20
2018-11-27T02:07:39.105Z,83.50
2018-11-27T02:10:10.205Z,83.70
2018-11-27T02:12:39.262Z,84.10
2018-11-27T02:15:13.345Z,84.10
2018-11-27T02:17:41.741Z,83.90
2018-11-27T02:20:11.485Z,83.70
2018-11-27T02:22:40.119Z,83.40
2018-11-27T02:25:11.673Z,83.20
2018-11-27T02:27:40.109Z,82.80
2018-11-27T02:30:11.050Z,83.10
2018-11-27T02:32:39.437Z,83.50
2018-11-27T02:35:11.708Z,83.50
2018-11-27T02:37:40.062Z,83.60
2018-11-27T02:40:10.212Z,83.60
2018-11-27T02:42:38.625Z,83.50
2018-11-27T02:45:08.906Z,83.80
2018-11-27T02:47:37.560Z,83.00
2018-11-27T02:50:08.396Z,83.00
2018-11-27T02:52:36.901Z,82.90
2018-11-27T02:55:08.074Z,82.60
2018-11-27T02:57:36.448Z,82.20
2018-11-27T03:00:06.165Z,81.60
2018-11-27T03:02:35.634Z,82.00
2018-11-27T03:05:05.107Z,81.70
2018-11-27T03:07:33.549Z,81.50
2018-11-27T03:10:01.893Z,81.60
2018-11-27T03:12:30.468Z,81.70
2018-11-27T03:14:58.813Z,81.80
2018-11-27T03:17:27.220Z,82.00
2018-11-27T03:19:55.604Z,82.00
2018-11-27T03:22:24.036Z,82.10
2018-11-27T03:24:52.656Z,81.80
2018-11-27T03:27:21.046Z,82.00
2018-11-27T03:29:49.465Z,81.60
2018-11-27T03:32:17.857Z,81.80
2018-11-27T03:34:46.358Z,81.60
2018-11-27T03:37:14.781Z,82.40
2018-11-27T03:39:43.135Z,82.00
2018-11-27T03:42:11.714Z,82.10
2018-11-27T03:44:40.524Z,82.30
2018-11-27T03:47:08.910Z,82.00
2018-11-27T03:49:37.319Z,81.80
2018-11-27T03:52:06.073Z,81.50
2018-11-27T03:54:34.482Z,81.50
2018-11-27T03:57:02.887Z,81.70
2018-11-27T03:59:31.316Z,81.90
2018-11-27T04:02:00.073Z,82.00
2018-11-27T04:04:28.427Z,82.00
2018-11-27T04:06:56.835Z,81.90
2018-11-27T04:09:25.227Z,81.90
2018-11-27T04:11:53.724Z,81.80
2018-11-27T04:14:22.149Z,81.80
2018-11-27T04:16:50.523Z,82.00
2018-11-27T04:19:18.920Z,81.80
2018-11-27T04:21:47.453Z,81.90
2018-11-27T04:24:15.852Z,81.30
2018-11-27T04:26:44.215Z,81.70
2018-11-27T04:29:12.776Z,81.90
2018-11-27T04:31:41.150Z,82.80
2018-11-27T04:34:09.527Z,83.80
2018-11-27T04:36:38.008Z,84.20
2018-11-27T04:39:08.975Z,84.60
2018-11-27T04:41:37.382Z,85.30
2018-11-27T04:44:06.458Z,85.60
2018-11-27T04:46:34.857Z,86.60
2018-11-27T04:49:03.310Z,87.10
2018-11-27T04:51:31.680Z,87.50
2018-11-27T04:54:00.160Z,88.20
2018-11-27T04:56:28.523Z,87.90
2018-11-27T04:58:57.065Z,88.10
2018-11-27T05:01:25.449Z,88.10
2018-11-27T05:03:53.854Z,88.00
2018-11-27T05:06:22.220Z,88.00
2018-11-27T05:08:50.690Z,88.30
2018-11-27T05:11:19.145Z,88.40
2018-11-27T05:13:47.519Z,88.60
2018-11-27T05:16:15.911Z,88.80
2018-11-27T05:18:44.300Z,88.80
2018-11-27T05:21:12.730Z,88.60
2018-11-27T05:23:41.140Z,88.50
2018-11-27T05:26:09.480Z,88.80
2018-11-27T05:28:37.875Z,88.90
2018-11-27T05:31:06.557Z,88.80
2018-11-27T05:33:34.927Z,88.60
2018-11-27T05:36:03.326Z,88.60
2018-11-27T05:38:31.723Z,88.50
2018-11-27T05:41:00.064Z,88.80
2018-11-27T05:43:28.445Z,89.30
2018-11-27T05:45:56.892Z,89.50
2018-11-27T05:48:25.291Z,89.30
2018-11-27T05:50:53.702Z,89.30
2018-11-27T05:53:22.075Z,89.20
2018-11-27T05:55:50.612Z,89.30
2018-11-27T05:58:19.027Z,89.30
2018-11-27T06:00:47.579Z,89.40
2018-11-27T06:03:16.076Z,89.40
2018-11-27T06:05:44.523Z,89.50
2018-11-27T06:08:12.995Z,89.40
2018-11-27T06:10:41.396Z,89.50
2018-11-27T06:13:09.745Z,89.60
2018-11-27T06:15:38.415Z,89.70
2018-11-27T06:18:07.042Z,89.70
2018-11-27T06:20:35.445Z,89.70
2018-11-27T06:23:03.828Z,89.90
2018-11-27T06:25:32.294Z,90.00
2018-11-27T06:28:06.411Z,89.50
2018-11-27T06:30:35.447Z,89.70
2018-11-27T06:33:03.995Z,89.70
2018-11-27T06:35:37.147Z,89.70
2018-11-27T06:38:07.359Z,89.40
2018-11-27T06:40:35.868Z,89.30
2018-11-27T06:43:04.933Z,89.70
2018-11-27T06:45:33.773Z,89.70
2018-11-27T06:48:02.475Z,89.90
2018-11-27T06:50:30.887Z,90.00
2018-11-27T06:52:59.973Z,89.90
2018-11-27T06:55:28.922Z,90.10
2018-11-27T06:57:57.304Z,90.20
2018-11-27T07:00:28.123Z,90.20
2018-11-27T07:02:57.705Z,90.00
2018-11-27T07:05:26.680Z,90.00
2018-11-27T07:07:55.082Z,89.80
2018-11-27T07:10:28.809Z,89.50
2018-11-27T07:12:59.090Z,89.30
2018-11-27T07:15:27.466Z,89.10
2018-11-27T07:17:55.862Z,88.90
2018-11-27T07:20:24.550Z,88.50
2018-11-27T07:22:53.029Z,88.30
2018-11-27T07:25:21.416Z,88.50
2018-11-27T07:27:50.527Z,88.30
2018-11-27T07:30:21.939Z,87.90
2018-11-27T07:32:50.436Z,87.20
2018-11-27T07:35:19.132Z,86.70
2018-11-27T07:37:48.642Z,86.60
2018-11-27T07:40:23.188Z,86.70
2018-11-27T07:42:52.997Z,86.40
2018-11-27T07:45:22.210Z,86.10
2018-11-27T07:47:50.614Z,85.00
2018-11-27T07:50:19.578Z,84.50
2018-11-27T07:52:48.188Z,84.80
2018-11-27T07:55:18.818Z,85.20
2018-11-27T07:57:47.704Z,84.80
2018-11-27T08:00:18.445Z,84.60
2018-11-27T08:02:48.808Z,84.40
2018-11-27T08:05:18.888Z,83.90
2018-11-27T08:07:49.620Z,84.00
2018-11-27T08:10:19.058Z,84.10
2018-11-27T08:12:47.456Z,84.10
2018-11-27T08:15:17.431Z,84.00
2018-11-27T08:17:45.860Z,84.40
2018-11-27T08:20:16.824Z,83.80
2018-11-27T08:22:45.656Z,83.90
2018-11-27T08:25:14.986Z,83.80
2018-11-27T08:27:43.800Z,83.60
2018-11-27T08:30:14.470Z,82.80
2018-11-27T08:32:43.202Z,82.80
2018-11-27T08:35:14.918Z,81.80
2018-11-27T08:37:43.837Z,81.90
2018-11-27T08:40:13.506Z,81.60
2018-11-27T08:42:41.882Z,81.80
2018-11-27T08:45:15.824Z,82.10
2018-11-27T08:47:44.861Z,82.20
2018-11-27T08:50:14.279Z,81.80
2018-11-27T08:52:46.682Z,81.30
2018-11-27T08:55:14.310Z,81.60
2018-11-27T08:57:44.141Z,81.60
2018-11-27T09:00:16.667Z,81.30
2018-11-27T09:02:45.596Z,80.80
2018-11-27T09:05:14.017Z,80.30
2018-11-27T09:07:43.180Z,80.50
2018-11-27T09:10:17.037Z,79.90
2018-11-27T09:12:45.440Z,80.20
2018-11-27T09:15:15.227Z,79.00
2018-11-27T09:17:49.028Z,79.60
2018-11-27T09:20:17.537Z,78.30
2018-11-27T09:22:45.962Z,78.80
2018-11-27T09:25:14.532Z,79.10
2018-11-27T09:27:42.904Z,79.10
2018-11-27T09:30:15.996Z,78.50
2018-11-27T09:32:44.384Z,78.50
2018-11-27T09:35:13.267Z,78.50
2018-11-27T09:37:42.056Z,78.00
2018-11-27T09:40:15.312Z,78.10
2018-11-27T09:42:43.853Z,78.10
2018-11-27T09:45:19.096Z,77.10
2018-11-27T09:47:48.993Z,76.40
2018-11-27T09:50:17.830Z,76.80
2018-11-27T09:52:46.476Z,76.30
2018-11-27T09:55:17.448Z,76.00
2018-11-27T09:57:45.973Z,76.80
2018-11-27T10:00:18.567Z,76.60
2018-11-27T10:02:47.316Z,76.50
2018-11-27T10:05:16.616Z,76.30
2018-11-27T10:07:44.987Z,75.10
2018-11-27T10:10:15.479Z,75.30
2018-11-27T10:12:43.946Z,75.50
2018-11-27T10:15:15.070Z,75.50
2018-11-27T10:17:44.088Z,74.70
2018-11-27T10:20:18.209Z,74.30
2018-11-27T10:22:46.994Z,74.60
2018-11-27T10:25:15.789Z,75.50
2018-11-27T10:27:44.679Z,75.20
2018-11-27T10:30:16.764Z,74.60
2018-11-27T10:32:45.562Z,75.30
2018-11-27T10:35:31.261Z,75.40
2018-11-27T10:37:59.658Z,75.40
2018-11-27T10:40:28.371Z,74.70
2018-11-27T10:42:56.848Z,74.00
2018-11-27T10:45:25.376Z,75.10
2018-11-27T10:47:55.909Z,74.60
2018-11-27T10:50:25.037Z,74.80
2018-11-27T10:52:56.420Z,75.30
2018-11-27T10:55:25.145Z,75.50
2018-11-27T10:57:53.653Z,75.30
2018-11-27T11:00:29.473Z,74.80
2018-11-27T11:03:03.640Z,74.00
2018-11-27T11:05:34.714Z,73.80
2018-11-27T11:08:03.215Z,72.30
2018-11-27T11:10:31.677Z,73.80
2018-11-27T11:13:00.073Z,74.00
2018-11-27T11:15:28.454Z,73.00
2018-11-27T11:17:56.921Z,71.30
2018-11-27T11:20:25.580Z,69.00
2018-11-27T11:22:54.256Z,70.70
2018-11-27T11:25:23.908Z,71.50
2018-11-27T11:27:56.234Z,71.50
2018-11-27T11:30:24.759Z,71.10
2018-11-27T11:32:53.159Z,70.70
2018-11-27T11:35:21.898Z,71.20
2018-11-27T11:37:50.557Z,71.30
2018-11-27T11:40:23.421Z,71.10
2018-11-27T11:42:54.067Z,71.50
2018-11-27T11:45:22.895Z,71.50
2018-11-27T11:47:51.700Z,72.20
2018-11-27T11:50:22.117Z,72.40
2018-11-27T11:53:00.785Z,71.50
2018-11-27T11:55:29.395Z,71.10
2018-11-27T11:57:58.061Z,71.60
2018-11-27T12:00:32.636Z,71.00
2018-11-27T12:03:01.076Z,70.90
2018-11-27T12:05:29.527Z,71.40
2018-11-27T12:07:57.911Z,71.90
2018-11-27T12:10:26.521Z,71.70
2018-11-27T12:12:55.185Z,72.60
2018-11-27T12:15:24.500Z,71.70
2018-11-27T12:17:53.159Z,72.80
2018-11-27T12:20:21.801Z,72.50
2018-11-27T12:22:51.670Z,73.00
2018-11-27T12:25:24.119Z,72.70
2018-11-27T12:27:49.731Z,73.40
2018-11-27T12:30:23.288Z,73.50
2018-11-27T12:32:52.349Z,73.30
2018-11-27T12:35:21.363Z,73.20
2018-11-27T12:37:49.940Z,73.10
2018-11-27T12:40:23.691Z,73.10
2018-11-27T12:42:52.594Z,72.60
2018-11-27T12:45:23.888Z,72.60
2018-11-27T12:47:53.203Z,72.60
2018-11-27T12:50:26.345Z,73.50
2018-11-27T12:52:55.015Z,73.50
2018-11-27T12:55:24.435Z,73.40
2018-11-27T12:57:52.798Z,73.20
2018-11-27T13:00:23.004Z,72.80
2018-11-27T13:02:51.530Z,73.50
2018-11-27T13:05:21.394Z,73.60
2018-11-27T13:07:50.883Z,74.10
2018-11-27T13:10:19.312Z,73.50
2018-11-27T13:12:47.732Z,73.60
2018-11-27T13:15:19.198Z,73.80
2018-11-27T13:17:48.538Z,73.40
2018-11-27T13:20:18.008Z,73.70
2018-11-27T13:22:46.849Z,74.00
2018-11-27T13:25:24.638Z,73.60
2018-11-27T13:27:55.163Z,73.20
2018-11-27T13:30:33.131Z,73.60
2018-11-27T13:33:07.222Z,73.50
2018-11-27T13:35:35.975Z,73.80
2018-11-27T13:38:04.722Z,74.40
2018-11-27T13:40:33.174Z,74.60
2018-11-27T13:43:01.684Z,74.80
2018-11-27T13:45:30.438Z,74.50
2018-11-27T13:47:59.058Z,74.10
2018-11-27T13:50:27.588Z,74.60
2018-11-27T13:52:55.999Z,75.20
2018-11-27T13:55:24.675Z,75.30
2018-11-27T13:57:53.096Z,75.10
2018-11-27T14:00:21.542Z,74.90
2018-11-27T14:02:51.792Z,75.30
2018-11-27T14:05:21.663Z,75.60
2018-11-27T14:07:50.094Z,75.30
2018-11-27T14:10:18.885Z,75.50
2018-11-27T14:12:49.094Z,75.80
2018-11-27T14:15:24.189Z,76.80
2018-11-27T14:17:52.366Z,76.10
2018-11-27T14:20:21.364Z,76.30
2018-11-27T14:22:50.632Z,76.50
2018-11-27T14:25:19.394Z,76.70
2018-11-27T14:27:51.351Z,77.60
2018-11-27T14:30:24.042Z,76.80
2018-11-27T14:32:52.933Z,77.10
2018-11-27T14:35:22.426Z,77.50
2018-11-27T14:37:52.304Z,77.80
2018-11-27T14:40:27.053Z,77.80
2018-11-27T14:42:55.596Z,78.10
2018-11-27T14:45:25.153Z,78.40
2018-11-27T14:47:55.252Z,78.80
2018-11-27T14:50:23.804Z,78.90
2018-11-27T14:52:52.668Z,79.00
2018-11-27T14:55:25.127Z,78.90
2018-11-27T14:57:53.621Z,79.20
2018-11-27T15:00:23.327Z,79.40
2018-11-27T15:02:52.091Z,79.50
2018-11-27T15:05:26.255Z,79.60
2018-11-27T15:07:54.637Z,79.60
2018-11-27T15:10:23.732Z,79.70
2018-11-27T15:12:52.500Z,80.00
2018-11-27T15:15:20.922Z,80.00
2018-11-27T15:17:49.439Z,80.20
2018-11-27T15:20:19.213Z,80.30
2018-11-27T15:22:48.053Z,80.40
2018-11-27T15:25:16.625Z,80.50
2018-11-27T15:27:45.191Z,80.70
2018-11-27T15:30:21.797Z,80.90
2018-11-27T15:32:51.166Z,81.20
2018-11-27T15:35:19.768Z,81.10
2018-11-27T15:37:48.158Z,81.40
2018-11-27T15:40:22.338Z,81.20
2018-11-27T15:42:51.033Z,81.40
2018-11-27T15:45:23.882Z,82.20
2018-11-27T15:47:52.374Z,81.50
2018-11-27T15:50:21.594Z,81.70
2018-11-27T15:52:50.144Z,81.70
2018-11-27T15:55:29.436Z,81.90
2018-11-27T15:58:00.491Z,82.00
2018-11-27T16:00:28.909Z,81.90
2018-11-27T16:02:57.359Z,82.50
2018-11-27T16:05:25.923Z,82.20
2018-11-27T16:07:54.537Z,82.20
2018-11-27T16:10:22.999Z,82.20
2018-11-27T16:12:51.482Z,82.20
2018-11-27T16:15:20.840Z,82.10
2018-11-27T16:17:50.111Z,82.90
2018-11-27T16:20:20.264Z,82.20
2018-11-27T16:22:50.658Z,82.40
2018-11-27T16:25:21.471Z,82.40
2018-11-27T16:27:50.048Z,82.40
2018-11-27T16:30:23.528Z,82.40
2018-11-27T16:32:51.988Z,82.40
2018-11-27T16:35:20.549Z,82.40
2018-11-27T16:37:50.457Z,82.40
2018-11-27T16:40:21.069Z,82.40
2018-11-27T16:42:49.930Z,82.50
2018-11-27T16:45:19.933Z,82.60
2018-11-27T16:47:49.028Z,82.50
2018-11-27T16:50:18.750Z,82.70
2018-11-27T16:52:47.808Z,82.80
2018-11-27T16:55:18.928Z,82.90
2018-11-27T16:57:47.361Z,83.00
2018-11-27T17:00:25.622Z,83.00
2018-11-27T17:02:55.330Z,83.40
2018-11-27T17:05:24.186Z,83.10
2018-11-27T17:07:52.623Z,83.20
2018-11-27T17:10:21.722Z,83.40
2018-11-27T17:12:51.636Z,83.40
2018-11-27T17:15:21.134Z,83.50
2018-11-27T17:17:49.549Z,83.60
2018-11-27T17:20:24.533Z,83.50
2018-11-27T17:22:53.785Z,83.70
2018-11-27T17:25:23.073Z,83.80
2018-11-27T17:27:51.958Z,83.70
2018-11-27T17:30:46.083Z,84.50
2018-11-27T17:33:22.856Z,84.00
2018-11-27T17:35:51.237Z,84.20
2018-11-27T17:38:19.947Z,84.00
2018-11-27T17:40:48.401Z,84.10
2018-11-27T17:43:17.057Z,84.20
2018-11-27T17:45:45.460Z,84.40
2018-11-27T17:48:13.979Z,84.40
2018-11-27T17:50:42.346Z,85.20
2018-11-27T17:53:10.744Z,84.40
2018-11-27T17:55:39.110Z,84.40
2018-11-27T17:58:07.595Z,84.40
2018-11-27T18:00:36.132Z,84.60
2018-11-27T18:03:06.855Z,84.70
2018-11-27T18:05:35.438Z,84.50
2018-11-27T18:08:04.286Z,84.70
2018-11-27T18:10:32.803Z,84.80
2018-11-27T18:13:01.186Z,84.90
2018-11-27T18:15:29.588Z,85.00
2018-11-27T18:17:58.017Z,84.90
2018-11-27T18:20:26.529Z,85.00
2018-11-27T18:22:55.168Z,85.10
2018-11-27T18:25:23.548Z,85.10
2018-11-27T18:27:52.136Z,85.30
2018-11-27T18:30:22.590Z,85.20
2018-11-27T18:32:51.159Z,85.50
2018-11-27T18:35:20.650Z,85.40
2018-11-27T18:37:49.791Z,85.50
2018-11-27T18:40:18.836Z,85.70
2018-11-27T18:42:47.751Z,85.80
2018-11-27T18:45:19.216Z,85.90
2018-11-27T18:47:47.704Z,85.90
2018-11-27T18:50:16.237Z,86.00
2018-11-27T18:52:44.916Z,86.00
2018-11-27T18:55:15.429Z,86.20
2018-11-27T18:57:44.618Z,86.30
2018-11-27T19:00:16.346Z,86.40
2018-11-27T19:02:44.998Z,86.70
2018-11-27T19:05:13.639Z,86.50
2018-11-27T19:07:42.574Z,86.50
2018-11-27T19:10:15.378Z,86.60
2018-11-27T19:12:43.858Z,86.80
2018-11-27T19:15:18.960Z,86.80
2018-11-27T19:17:48.929Z,86.90
2018-11-27T19:20:17.434Z,87.00
2018-11-27T19:22:45.849Z,87.20
2018-11-27T19:25:15.809Z,87.20
2018-11-27T19:27:44.241Z,87.20
2018-11-27T19:30:16.390Z,87.50
2018-11-27T19:32:44.486Z,87.40
2018-11-27T19:35:14.208Z,87.50
2018-11-27T19:37:42.981Z,87.60
2018-11-27T19:40:13.970Z,87.90
2018-11-27T19:42:42.881Z,88.00
2018-11-27T19:45:21.627Z,88.00
2018-11-27T19:47:50.318Z,88.00
2018-11-27T19:50:19.164Z,88.10
2018-11-27T19:52:49.251Z,88.10
2018-11-27T19:55:18.445Z,88.20
2018-11-27T19:57:46.847Z,88.30
2018-11-27T20:00:21.291Z,88.40
2018-11-27T20:02:49.779Z,88.40
2018-11-27T20:05:19.649Z,88.70
2018-11-27T20:07:48.819Z,88.40
2018-11-27T20:10:17.715Z,88.50
2018-11-27T20:12:46.169Z,88.50
2018-11-27T20:15:19.924Z,88.50
2018-11-27T20:17:49.092Z,88.70
2018-11-27T20:20:19.349Z,88.70
2018-11-27T20:22:48.071Z,88.80
2018-11-27T20:25:18.123Z,88.90
2018-11-27T20:27:46.842Z,88.90
2018-11-27T20:30:18.365Z,88.90
2018-11-27T20:32:50.323Z,88.90
2018-11-27T20:35:19.461Z,89.00
2018-11-27T20:37:48.938Z,89.00
2018-11-27T20:40:18.708Z,89.30
2018-11-27T20:42:47.240Z,89.30
2018-11-27T20:45:20.855Z,89.30
2018-11-27T20:47:53.957Z,89.30
2018-11-27T20:50:23.596Z,89.30
2018-11-27T20:52:52.168Z,89.30
2018-11-27T20:55:21.330Z,89.40
2018-11-27T20:57:52.377Z,89.40
2018-11-27T21:00:23.742Z,89.50
2018-11-27T21:02:53.799Z,89.50
2018-11-27T21:05:22.694Z,89.50
2018-11-27T21:07:51.089Z,89.50
2018-11-27T21:10:19.818Z,89.50
2018-11-27T21:12:48.279Z,89.40
2018-11-27T21:15:17.970Z,89.50
2018-11-27T21:17:46.350Z,89.50
2018-11-27T21:20:15.890Z,89.50
2018-11-27T21:22:44.434Z,89.60
2018-11-27T21:25:15.108Z,89.60
2018-11-27T21:27:44.933Z,89.60
2018-11-27T21:30:15.714Z,89.60
2018-11-27T21:32:44.605Z,90.10
2018-11-27T21:35:14.138Z,89.60
2018-11-27T21:37:42.734Z,89.50
2018-11-27T21:40:13.324Z,89.50
2018-11-27T21:42:41.804Z,89.60
2018-11-27T21:45:26.520Z,89.50
2018-11-27T21:47:55.940Z,89.60
2018-11-27T21:50:29.832Z,89.90
2018-11-27T21:52:59.347Z,90.00
2018-11-27T21:55:28.076Z,90.00
2018-11-27T21:57:56.474Z,90.00
2018-11-27T22:00:26.082Z,90.00
2018-11-27T22:02:54.716Z,90.10
2018-11-27T22:05:23.132Z,90.10
2018-11-27T22:07:51.668Z,90.10
2018-11-27T22:10:22.062Z,90.00
2018-11-27T22:12:54.738Z,90.00
2018-11-27T22:15:30.852Z,90.00
2018-11-27T22:17:59.294Z,90.00
2018-11-27T22:20:27.680Z,90.00
2018-11-27T22:22:56.482Z,90.20
2018-11-27T22:25:24.860Z,90.00
2018-11-27T22:27:53.258Z,90.00
2018-11-27T22:30:21.762Z,90.00
2018-11-27T22:32:53.258Z,90.00
2018-11-27T22:35:22.024Z,90.00
2018-11-27T22:37:50.459Z,90.00
2018-11-27T22:40:21.078Z,90.00
2018-11-27T22:42:50.779Z,90.00
2018-11-27T22:45:24.137Z,90.00
2018-11-27T22:47:52.617Z,90.00
2018-11-27T22:50:21.510Z,90.00
2018-11-27T22:52:50.312Z,90.00
2018-11-27T22:55:18.710Z,90.10
2018-11-27T22:57:47.255Z,90.10
2018-11-27T23:00:18.815Z,90.10
2018-11-27T23:02:47.234Z,90.10
2018-11-27T23:05:16.631Z,90.10
2018-11-27T23:07:45.085Z,90.20
2018-11-27T23:10:14.638Z,90.30
2018-11-27T23:12:43.625Z,90.30
2018-11-27T23:15:14.579Z,90.30
2018-11-27T23:17:43.031Z,90.40
2018-11-27T23:20:13.968Z,90.40
2018-11-27T23:22:42.622Z,90.40
2018-11-27T23:25:12.474Z,90.50
2018-11-27T23:27:41.015Z,90.50
2018-11-27T23:30:16.545Z,90.50
2018-11-27T23:32:44.949Z,90.50
2018-11-27T23:35:13.379Z,90.60
2018-11-27T23:37:42.167Z,90.60
2018-11-27T23:40:12.630Z,90.70
2018-11-27T23:42:41.621Z,90.70
2018-11-27T23:45:16.214Z,90.70
2018-11-27T23:47:44.609Z,90.70
2018-11-27T23:50:14.242Z,90.70
2018-11-27T23:52:42.915Z,90.70
2018-11-27T23:55:12.714Z,90.70
2018-11-27T23:57:41.504Z,90.80
